الصفحة الرئيسية
METAR-TAF:

METAR-TAF

مطار :

مطار بني ملال

بني ملال, المغرب

دائرة عرض: 32-24-00N, خط طول: 06-19-00W, ارتفاع: 518 متر

مراقبة الطقس الحالي

تاريخ ووقت الإصدار 36 دقيقة قبل الساعة 08:00UTC
ريح 5 عقدة من الجنوب الغربي
درجة الحرارة 12°درجة مئوية
الرطوبة 82%
ضغط 1016 hPa
الرؤية 10 كم أو أكثر
غيوم مفككة على ارتفاع 3000 قدم
غيوم متفرقة على ارتفاع 10000 قدم

METAR: GMMD 190800Z 22005KT 9999 BKN030 SCT100 12/09 Q1016 NOSIG

زمن: 09:36 (08:36 UTC)


TAF: مفقودة

أرصاد الطقس والتوقعات من أكثر من 4000 مطار (تقارير الطقس للمطار METAR والتنبؤ بالطقس بالمطارTAF).

المحطات المتاحة هي النقط الصفراء والحمراء على الخريطة.

حرك المؤشر فوق النقطة لمعرفة اسم المحطة.

ثم انقر لمعرفة أرصاد وتوقعات الطقس.

لتغيير الخارطة: اضغط على الأزرار الخضراء مع رمز الصليب الأسود للتكبير. على الزر الأخضر مع شرطة للتصغير، أو على الأسهم الخضراء للخرائط المجاورة.


METAR-TAF: